Decoded Metar for RPVM (MASBATE in PHILIPPINES) (IATA:NOP) | Meteo·Mobile Aviation Weather
aviador You're here:

RPVM Decoded Metar

MASBATE in PHILIPPINES
Report Time2018-11-16 02:00:00
UTC Time2018-11-16 02:59:01
Flight Rules vfr VFR
Wind040° at 07 kt
W.Decomp.*RWY 04: 7.0 kt HW 0.1 kt RCW
W.Rank040° ranks 2
Current wind is below 040° avg. (7.0)
Visibility9999 m
Phenomena:N/A
Clouds:Few 020 Hf
Expected CloudBase > 2,800 ft AGL from Temp-Dew spread
CeilingNone
Temp30°C (ISA +15)
Dew Point23°C (66% RH)
Heat Index34.1°C
QNH1014 hPa
Density Alt2,096 ft
Elevation33 ft
Report Wrong Elevation
Raw Report
METAR RPVM 160200Z 04007KT 010V070 9999 FEW020 30/23 Q1014 RMK A2994=

Extra information for RPVM:More info

Metar Taf Metar & Taf Last 4 Metars F.Rules Stats Wind Profile Meteogram Temp Stats Airport Information Weather charts Add Link Nearby VenuesMetar ALERT Operation Metar Decoded Social comments